Time,TemperatureF,DewpointF,PressureIn,WindDirection,WindDirectionDegrees,WindSpeedMPH,WindSpeedGustMPH,Humidity,HourlyPrecipIn,Conditions,Clouds,dailyrainin,SoftwareType,DateUTC
2013-03-19 00:00:00,68.1,66.3,30.01,SE,142,0.0,3.0,94,0.00,,,0.05,Wunderground v.1.15,2013-03-19 04:00:00,
2013-03-19 00:03:00,68.1,66.3,30.00,SSE,150,0.0,1.0,94,0.00,,,0.00,Wunderground v.1.15,2013-03-19 04:03:00,
2013-03-19 00:06:00,68.1,66.3,30.00,SSE,149,0.0,1.0,94,0.00,,,0.00,Wunderground v.1.15,2013-03-19 04:06:00,
2013-03-19 00:11:00,68.0,66.2,30.00,SE,144,1.0,1.0,94,0.00,,,0.00,Wunderground v.1.15,2013-03-19 04:11:00,
2013-03-19 00:16:00,68.1,66.3,30.00,SE,146,1.0,2.0,94,0.00,,,0.00,Wunderground v.1.15,2013-03-19 04:16:00,
2013-03-19 00:22:00,68.1,66.3,29.99,SE,139,0.0,2.0,94,0.00,,,0.00,Wunderground v.1.15,2013-03-19 04:22:00,
2013-03-19 00:28:00,68.0,66.2,29.99,SE,140,1.0,2.0,94,0.00,,,0.00,Wunderground v.1.15,2013-03-19 04:28:00,
2013-03-19 00:34:00,68.0,66.2,29.99,SE,138,1.0,2.0,94,0.00,,,0.00,Wunderground v.1.15,2013-03-19 04:34:00,
2013-03-19 00:40:00,68.1,66.3,29.99,SSE,150,2.0,2.0,94,0.00,,,0.00,Wunderground v.1.15,2013-03-19 04:40:00,
2013-03-19 00:45:00,68.1,66.3,29.99,SE,132,2.0,3.0,94,0.00,,,0.00,Wunderground v.1.15,2013-03-19 04:45:00,
2013-03-19 00:52:00,68.2,66.4,29.98,SSE,147,2.0,3.0,94,0.00,,,0.00,Wunderground v.1.15,2013-03-19 04:52:00,
2013-03-19 00:57:00,68.2,66.4,29.98,SSE,149,2.0,3.0,94,0.00,,,0.00,Wunderground v.1.15,2013-03-19 04:57:00,
2013-03-19 01:03:00,68.3,66.2,29.98,SE,146,0.0,1.0,93,0.00,,,0.00,Wunderground v.1.15,2013-03-19 05:03:00,
2013-03-19 01:08:00,68.3,66.5,29.98,SSE,149,1.0,1.0,94,0.00,,,0.00,Wunderground v.1.15,2013-03-19 05:08:00,
2013-03-19 01:14:00,68.2,66.1,29.98,SSE,149,0.0,0.0,93,0.00,,,0.00,Wunderground v.1.15,2013-03-19 05:14:00,
2013-03-19 01:19:00,68.0,65.9,29.99,SSE,149,0.0,0.0,93,0.00,,,0.00,Wunderground v.1.15,2013-03-19 05:19:00,
2013-03-19 01:25:00,68.0,66.2,29.99,SSE,160,0.0,0.0,94,0.00,,,0.00,Wunderground v.1.15,2013-03-19 05:25:00,
2013-03-19 01:30:00,68.1,66.3,29.99,SSE,161,1.0,1.0,94,0.00,,,0.00,Wunderground v.1.15,2013-03-19 05:30:00,
2013-03-19 01:35:00,68.4,66.6,29.98,SSE,156,1.0,2.0,94,0.00,,,0.00,Wunderground v.1.15,2013-03-19 05:35:00,
2013-03-19 01:41:00,68.4,66.6,29.98,SSE,165,0.0,1.0,94,0.00,,,0.00,Wunderground v.1.15,2013-03-19 05:41:00,
2013-03-19 01:47:00,68.3,66.5,29.98,SSE,165,0.0,1.0,94,0.00,,,0.00,Wunderground v.1.15,2013-03-19 05:47:00,
2013-03-19 01:52:00,68.3,66.5,29.98,SSE,165,0.0,0.0,94,0.00,,,0.00,Wunderground v.1.15,2013-03-19 05:52:00,
2013-03-19 01:58:00,68.3,66.5,29.98,SSE,167,0.0,0.0,94,0.00,,,0.00,Wunderground v.1.15,2013-03-19 05:58:00,
2013-03-19 02:03:00,68.4,66.6,29.97,South,191,0.0,0.0,94,0.00,,,0.00,Wunderground v.1.15,2013-03-19 06:03:00,
2013-03-19 02:08:00,68.4,66.6,29.97,South,171,1.0,2.0,94,0.00,,,0.00,Wunderground v.1.15,2013-03-19 06:08:00,
2013-03-19 02:13:00,68.6,66.8,29.97,South,170,0.0,2.0,94,0.00,,,0.00,Wunderground v.1.15,2013-03-19 06:13:00,
2013-03-19 02:18:00,68.6,66.8,29.96,South,171,1.0,2.0,94,0.00,,,0.00,Wunderground v.1.15,2013-03-19 06:18:00,
2013-03-19 02:23:00,68.5,66.7,29.96,SSW,200,0.0,1.0,94,0.00,,,0.00,Wunderground v.1.15,2013-03-19 06:23:00,
2013-03-19 02:28:00,68.5,66.7,29.96,SSE,159,1.0,2.0,94,0.00,,,0.01,Wunderground v.1.15,2013-03-19 06:28:00,
2013-03-19 02:33:00,68.5,66.7,29.96,SSW,192,0.0,2.0,94,0.07,,,0.02,Wunderground v.1.15,2013-03-19 06:33:00,
2013-03-19 02:38:00,68.5,66.7,29.96,South,175,0.0,2.0,94,0.07,,,0.02,Wunderground v.1.15,2013-03-19 06:38:00,
2013-03-19 02:43:00,68.4,66.6,29.96,SSE,165,0.0,1.0,94,0.05,,,0.02,Wunderground v.1.15,2013-03-19 06:43:00,
2013-03-19 02:48:00,68.4,66.9,29.97,SSE,163,0.0,2.0,95,0.04,,,0.02,Wunderground v.1.15,2013-03-19 06:48:00,
2013-03-19 02:53:00,68.5,67.0,29.97,SSE,167,0.0,3.0,95,0.00,,,0.02,Wunderground v.1.15,2013-03-19 06:53:00,
2013-03-19 02:58:00,68.4,66.9,29.97,SSW,196,3.0,4.0,95,0.00,,,0.02,Wunderground v.1.15,2013-03-19 06:58:00,
2013-03-19 03:03:00,68.4,66.9,29.97,SSE,149,2.0,2.0,95,0.00,,,0.03,Wunderground v.1.15,2013-03-19 07:03:00,
2013-03-19 03:08:00,68.5,67.0,29.97,South,184,3.0,3.0,95,0.00,,,0.03,Wunderground v.1.15,2013-03-19 07:08:00,
2013-03-19 03:13:00,68.6,67.1,29.97,South,170,1.0,4.0,95,0.00,,,0.03,Wunderground v.1.15,2013-03-19 07:13:00,
2013-03-19 03:18:00,68.8,67.6,29.95,SSW,206,1.0,4.0,96,0.00,,,0.03,Wunderground v.1.15,2013-03-19 07:18:00,
2013-03-19 03:24:00,69.0,67.8,29.95,South,173,2.0,3.0,96,0.00,,,0.03,Wunderground v.1.15,2013-03-19 07:24:00,
2013-03-19 03:29:00,69.3,68.1,29.95,SSW,192,2.0,5.0,96,0.00,,,0.03,Wunderground v.1.15,2013-03-19 07:29:00,
2013-03-19 03:34:00,69.5,68.3,29.94,South,172,1.0,6.0,96,0.00,,,0.03,Wunderground v.1.15,2013-03-19 07:34:00,
2013-03-19 03:39:00,69.6,68.4,29.94,South,171,2.0,6.0,96,0.00,,,0.03,Wunderground v.1.15,2013-03-19 07:39:00,
2013-03-19 03:44:00,69.8,68.6,29.94,South,182,4.0,5.0,96,0.00,,,0.03,Wunderground v.1.15,2013-03-19 07:44:00,
2013-03-19 03:49:00,70.0,68.8,29.92,SSW,195,7.0,8.0,96,0.00,,,0.03,Wunderground v.1.15,2013-03-19 07:49:00,
2013-03-19 03:54:00,70.1,68.9,29.92,SSW,196,4.0,7.0,96,0.00,,,0.03,Wunderground v.1.15,2013-03-19 07:54:00,
2013-03-19 03:59:00,70.2,69.0,29.92,SSE,152,3.0,7.0,96,0.00,,,0.03,Wunderground v.1.15,2013-03-19 07:59:00,
2013-03-19 04:04:00,70.3,69.1,29.90,SSW,200,5.0,7.0,96,0.00,,,0.03,Wunderground v.1.15,2013-03-19 08:04:00,
2013-03-19 04:09:00,70.5,69.3,29.90,SSE,159,7.0,10.0,96,0.00,,,0.04,Wunderground v.1.15,2013-03-19 08:09:00,
2013-03-19 04:14:00,70.7,69.5,29.90,SSE,150,5.0,10.0,96,0.00,,,0.04,Wunderground v.1.15,2013-03-19 08:14:00,
2013-03-19 04:19:00,70.8,69.6,29.88,SSW,194,4.0,10.0,96,0.00,,,0.04,Wunderground v.1.15,2013-03-19 08:19:00,
2013-03-19 04:24:00,70.9,69.7,29.88,SSE,153,4.0,8.0,96,0.00,,,0.04,Wunderground v.1.15,2013-03-19 08:24:00,
2013-03-19 04:29:00,71.0,69.8,29.88,South,188,5.0,13.0,96,0.00,,,0.04,Wunderground v.1.15,2013-03-19 08:29:00,
2013-03-19 04:34:00,71.1,69.9,29.85,South,173,5.0,11.0,96,0.00,,,0.04,Wunderground v.1.15,2013-03-19 08:34:00,
2013-03-19 04:39:00,71.2,70.0,29.85,South,175,12.0,12.0,96,0.00,,,0.04,Wunderground v.1.15,2013-03-19 08:39:00,
2013-03-19 04:44:00,71.2,69.7,29.85,SE,137,5.0,11.0,95,0.00,,,0.04,Wunderground v.1.15,2013-03-19 08:44:00,
2013-03-19 04:49:00,71.3,69.8,29.85,ESE,122,11.0,11.0,95,0.00,,,0.04,Wunderground v.1.15,2013-03-19 08:49:00,
2013-03-19 04:54:00,71.4,69.9,29.85,SSE,164,2.0,13.0,95,0.00,,,0.04,Wunderground v.1.15,2013-03-19 08:54:00,
2013-03-19 04:59:00,71.3,69.8,29.85,SSW,205,1.0,13.0,95,0.00,,,0.04,Wunderground v.1.15,2013-03-19 08:59:00,
2013-03-19 05:04:00,71.3,69.8,29.89,SSW,194,6.0,8.0,95,0.00,,,0.04,Wunderground v.1.15,2013-03-19 09:04:00,
2013-03-19 05:09:00,71.3,69.5,29.89,SSE,155,1.0,8.0,94,0.00,,,0.04,Wunderground v.1.15,2013-03-19 09:09:00,
2013-03-19 05:14:00,71.3,69.5,29.89,SSW,208,1.0,4.0,94,0.00,,,0.04,Wunderground v.1.15,2013-03-19 09:14:00,
2013-03-19 05:20:00,71.3,69.5,29.91,NW,325,0.0,6.0,94,0.00,,,0.04,Wunderground v.1.15,2013-03-19 09:20:00,
2013-03-19 05:25:00,71.3,69.5,29.91,NNW,327,2.0,6.0,94,0.00,,,0.04,Wunderground v.1.15,2013-03-19 09:25:00,
2013-03-19 05:30:00,71.2,69.4,29.91,NE,36,2.0,6.0,94,0.00,,,0.04,Wunderground v.1.15,2013-03-19 09:30:00,
2013-03-19 05:35:00,71.2,69.4,29.91,NW,314,1.0,3.0,94,0.00,,,0.04,Wunderground v.1.15,2013-03-19 09:35:00,
2013-03-19 05:40:00,71.2,69.4,29.91,NW,321,0.0,7.0,94,0.00,,,0.04,Wunderground v.1.15,2013-03-19 09:40:00,
2013-03-19 05:45:00,71.1,69.3,29.91,NNE,20,1.0,3.0,94,0.00,,,0.04,Wunderground v.1.15,2013-03-19 09:45:00,
2013-03-19 05:50:00,71.1,69.3,29.94,NNE,28,5.0,5.0,94,0.00,,,0.04,Wunderground v.1.15,2013-03-19 09:50:00,
2013-03-19 05:55:00,71.1,69.3,29.94,WNW,300,1.0,3.0,94,0.00,,,0.04,Wunderground v.1.15,2013-03-19 09:55:00,
2013-03-19 06:00:00,71.0,69.2,29.94,WSW,252,1.0,3.0,94,0.00,,,0.04,Wunderground v.1.15,2013-03-19 10:00:00,
2013-03-19 06:05:00,70.9,69.1,29.96,NW,308,2.0,4.0,94,0.00,,,0.04,Wunderground v.1.15,2013-03-19 10:05:00,
2013-03-19 06:10:00,70.8,69.0,29.96,NW,309,0.0,1.0,94,0.00,,,0.04,Wunderground v.1.15,2013-03-19 10:10:00,
2013-03-19 06:15:00,70.7,68.9,29.96,NW,310,1.0,2.0,94,0.00,,,0.04,Wunderground v.1.15,2013-03-19 10:15:00,
2013-03-19 06:20:00,70.6,68.8,29.98,West,273,0.0,0.0,94,0.00,,,0.04,Wunderground v.1.15,2013-03-19 10:20:00,
2013-03-19 06:25:00,70.5,68.7,29.98,West,280,0.0,1.0,94,0.00,,,0.04,Wunderground v.1.15,2013-03-19 10:25:00,
2013-03-19 06:30:00,70.4,68.6,29.98,West,279,0.0,0.0,94,0.00,,,0.04,Wunderground v.1.15,2013-03-19 10:30:00,
2013-03-19 06:35:00,70.3,68.5,29.97,West,268,0.0,1.0,94,0.00,,,0.04,Wunderground v.1.15,2013-03-19 10:35:00,
2013-03-19 06:40:00,70.2,68.4,29.97,West,267,0.0,0.0,94,0.00,,,0.04,Wunderground v.1.15,2013-03-19 10:40:00,
2013-03-19 06:45:00,70.1,68.3,29.97,West,268,0.0,0.0,94,0.00,,,0.04,Wunderground v.1.15,2013-03-19 10:45:00,
2013-03-19 06:50:00,70.0,68.2,29.96,West,268,0.0,0.0,94,0.00,,,0.04,Wunderground v.1.15,2013-03-19 10:50:00,
2013-03-19 06:56:00,69.9,68.1,29.96,West,268,1.0,1.0,94,0.00,,,0.04,Wunderground v.1.15,2013-03-19 10:56:00,
2013-03-19 07:01:00,69.9,68.1,29.96,West,261,1.0,1.0,94,0.00,,,0.04,Wunderground v.1.15,2013-03-19 11:01:00,
2013-03-19 07:06:00,69.8,68.0,29.99,West,265,0.0,1.0,94,0.00,,,0.04,Wunderground v.1.15,2013-03-19 11:06:00,
2013-03-19 07:11:00,69.8,68.0,29.99,West,265,0.0,0.0,94,0.00,,,0.04,Wunderground v.1.15,2013-03-19 11:11:00,
2013-03-19 07:16:00,69.6,67.8,29.98,West,265,0.0,0.0,94,0.00,,,0.04,Wunderground v.1.15,2013-03-19 11:16:00,
2013-03-19 07:21:00,69.6,67.8,29.98,West,265,0.0,0.0,94,0.00,,,0.04,Wunderground v.1.15,2013-03-19 11:21:00,
2013-03-19 07:27:00,69.4,67.6,29.98,SSE,163,0.0,1.0,94,0.00,,,0.04,Wunderground v.1.15,2013-03-19 11:27:00,
2013-03-19 07:32:00,69.3,67.5,29.99,SSE,163,0.0,0.0,94,0.00,,,0.04,Wunderground v.1.15,2013-03-19 11:32:00,
2013-03-19 07:37:00,69.3,67.5,29.99,WSW,250,0.0,2.0,94,0.00,,,0.04,Wunderground v.1.15,2013-03-19 11:37:00,
2013-03-19 07:42:00,69.2,67.4,29.99,West,271,0.0,0.0,94,0.00,,,0.04,Wunderground v.1.15,2013-03-19 11:42:00,
2013-03-19 07:47:00,69.2,67.4,29.99,West,271,0.0,0.0,94,0.00,,,0.04,Wunderground v.1.15,2013-03-19 11:47:00,
2013-03-19 07:52:00,69.2,67.4,29.99,West,269,0.0,0.0,94,0.00,,,0.04,Wunderground v.1.15,2013-03-19 11:52:00,
2013-03-19 07:57:00,69.3,67.8,29.99,West,269,0.0,1.0,95,0.00,,,0.04,Wunderground v.1.15,2013-03-19 11:57:00,
2013-03-19 08:02:00,69.3,67.8,30.00,West,269,0.0,0.0,95,0.00,,,0.04,Wunderground v.1.15,2013-03-19 12:02:00,
2013-03-19 08:07:00,69.3,67.8,30.00,West,271,0.0,2.0,95,0.00,,,0.04,Wunderground v.1.15,2013-03-19 12:07:00,
2013-03-19 08:12:00,69.5,68.0,30.00,WNW,286,0.0,1.0,95,0.00,,,0.04,Wunderground v.1.15,2013-03-19 12:12:00,
2013-03-19 08:17:00,69.6,68.1,30.00,West,269,0.0,1.0,95,0.00,,,0.04,Wunderground v.1.15,2013-03-19 12:17:00,
2013-03-19 08:22:00,69.6,67.8,30.00,West,264,0.0,2.0,94,0.00,,,0.04,Wunderground v.1.15,2013-03-19 12:22:00,
2013-03-19 08:27:00,69.8,68.0,30.00,WSW,241,0.0,2.0,94,0.00,,,0.04,Wunderground v.1.15,2013-03-19 12:27:00,
2013-03-19 08:32:00,70.0,68.2,30.01,West,259,0.0,2.0,94,0.00,,,0.04,Wunderground v.1.15,2013-03-19 12:32:00,
2013-03-19 08:37:00,70.2,68.4,30.01,NW,322,0.0,2.0,94,0.00,,,0.04,Wunderground v.1.15,2013-03-19 12:37:00,
2013-03-19 08:42:00,70.3,68.5,30.01,WNW,299,0.0,2.0,94,0.00,,,0.04,Wunderground v.1.15,2013-03-19 12:42:00,
2013-03-19 08:47:00,70.3,68.2,30.01,West,265,0.0,2.0,93,0.00,,,0.04,Wunderground v.1.15,2013-03-19 12:47:00,
2013-03-19 08:52:00,70.3,68.2,30.01,SSE,163,1.0,2.0,93,0.00,,,0.04,Wunderground v.1.15,2013-03-19 12:52:00,
2013-03-19 08:57:00,70.3,68.2,30.01,West,268,0.0,2.0,93,0.00,,,0.04,Wunderground v.1.15,2013-03-19 12:57:00,
2013-03-19 09:02:00,70.3,68.2,30.00,West,264,0.0,0.0,93,0.00,,,0.04,Wunderground v.1.15,2013-03-19 13:02:00,
2013-03-19 09:07:00,70.4,68.3,30.00,East,100,0.0,0.0,93,0.00,,,0.04,Wunderground v.1.15,2013-03-19 13:07:00,
2013-03-19 09:12:00,70.5,68.4,30.00,NE,36,0.0,1.0,93,0.00,,,0.04,Wunderground v.1.15,2013-03-19 13:12:00,
2013-03-19 09:17:00,70.6,68.5,29.99,WSW,254,0.0,1.0,93,0.00,,,0.04,Wunderground v.1.15,2013-03-19 13:17:00,
2013-03-19 09:23:00,70.7,68.6,29.99,WSW,257,0.0,1.0,93,0.00,,,0.04,Wunderground v.1.15,2013-03-19 13:23:00,
2013-03-19 09:28:00,70.8,68.7,29.99,West,267,0.0,1.0,93,0.00,,,0.04,Wunderground v.1.15,2013-03-19 13:28:00,
2013-03-19 09:33:00,70.7,68.3,30.00,WNW,298,0.0,1.0,92,0.00,,,0.04,Wunderground v.1.15,2013-03-19 13:33:00,
2013-03-19 09:38:00,70.7,68.3,30.00,WNW,299,0.0,1.0,92,0.00,,,0.04,Wunderground v.1.15,2013-03-19 13:38:00,
2013-03-19 09:43:00,70.7,68.6,30.00,NW,309,0.0,0.0,93,0.00,,,0.04,Wunderground v.1.15,2013-03-19 13:43:00,
2013-03-19 09:48:00,70.8,68.7,30.00,NW,306,0.0,1.0,93,0.00,,,0.04,Wunderground v.1.15,2013-03-19 13:48:00,
2013-03-19 09:53:00,70.9,68.5,30.00,WSW,254,0.0,0.0,92,0.00,,,0.04,Wunderground v.1.15,2013-03-19 13:53:00,
2013-03-19 09:58:00,71.0,68.6,30.00,West,269,0.0,2.0,92,0.00,,,0.04,Wunderground v.1.15,2013-03-19 13:58:00,
2013-03-19 10:03:00,70.9,68.1,29.99,West,271,1.0,1.0,91,0.00,,,0.04,Wunderground v.1.15,2013-03-19 14:03:00,
2013-03-19 10:08:00,70.9,68.1,29.99,WNW,282,0.0,1.0,91,0.00,,,0.04,Wunderground v.1.15,2013-03-19 14:08:00,
2013-03-19 10:13:00,70.9,68.1,29.99,WNW,284,0.0,1.0,91,0.00,,,0.04,Wunderground v.1.15,2013-03-19 14:13:00,
2013-03-19 10:18:00,71.0,68.2,29.98,NNE,31,0.0,1.0,91,0.00,,,0.04,Wunderground v.1.15,2013-03-19 14:18:00,
2013-03-19 10:23:00,71.1,68.3,29.98,NW,309,1.0,1.0,91,0.00,,,0.04,Wunderground v.1.15,2013-03-19 14:23:00,
2013-03-19 10:28:00,71.2,68.4,29.98,NW,326,0.0,2.0,91,0.00,,,0.04,Wunderground v.1.15,2013-03-19 14:28:00,
2013-03-19 10:33:00,71.1,68.0,30.02,WNW,288,1.0,2.0,90,0.00,,,0.04,Wunderground v.1.15,2013-03-19 14:33:00,
2013-03-19 10:38:00,71.0,67.9,30.02,NW,305,0.0,2.0,90,0.00,,,0.04,Wunderground v.1.15,2013-03-19 14:38:00,
2013-03-19 10:43:00,71.0,67.9,30.02,NW,309,0.0,2.0,90,0.00,,,0.04,Wunderground v.1.15,2013-03-19 14:43:00,
2013-03-19 10:48:00,71.1,68.0,30.02,NW,310,0.0,3.0,90,0.00,,,0.04,Wunderground v.1.15,2013-03-19 14:48:00,
2013-03-19 10:53:00,71.1,67.7,30.02,NNE,33,0.0,2.0,89,0.00,,,0.04,Wunderground v.1.15,2013-03-19 14:53:00,
2013-03-19 10:58:00,71.3,67.9,30.02,SSW,211,1.0,2.0,89,0.00,,,0.04,Wunderground v.1.15,2013-03-19 14:58:00,
2013-03-19 11:03:00,71.5,67.8,30.01,NNE,17,0.0,4.0,88,0.00,,,0.04,Wunderground v.1.15,2013-03-19 15:03:00,
2013-03-19 11:08:00,71.8,68.1,30.01,NE,38,2.0,4.0,88,0.00,,,0.04,Wunderground v.1.15,2013-03-19 15:08:00,
2013-03-19 11:13:00,72.1,68.0,30.01,North,11,5.0,5.0,87,0.00,,,0.04,Wunderground v.1.15,2013-03-19 15:13:00,
2013-03-19 11:18:00,72.6,68.8,30.03,WNW,296,1.0,5.0,88,0.00,,,0.04,Wunderground v.1.15,2013-03-19 15:18:00,
2013-03-19 11:24:00,72.9,68.5,30.03,NNW,348,3.0,5.0,86,0.00,,,0.04,Wunderground v.1.15,2013-03-19 15:24:00,
2013-03-19 11:29:00,73.0,68.2,30.03,North,351,2.0,8.0,85,0.00,,,0.04,Wunderground v.1.15,2013-03-19 15:29:00,
2013-03-19 11:34:00,73.0,68.2,30.02,NW,323,1.0,3.0,85,0.00,,,0.04,Wunderground v.1.15,2013-03-19 15:34:00,
2013-03-19 11:39:00,73.6,68.5,30.02,NE,39,3.0,4.0,84,0.00,,,0.04,Wunderground v.1.15,2013-03-19 15:39:00,
2013-03-19 11:44:00,73.6,68.1,30.02,NNE,17,2.0,4.0,83,0.00,,,0.04,Wunderground v.1.15,2013-03-19 15:44:00,
2013-03-19 11:49:00,74.0,69.2,30.02,WNW,300,1.0,4.0,85,0.00,,,0.04,Wunderground v.1.15,2013-03-19 15:49:00,
2013-03-19 11:54:00,74.6,68.7,30.02,NNE,31,2.0,2.0,82,0.00,,,0.04,Wunderground v.1.15,2013-03-19 15:54:00,
2013-03-19 11:59:00,75.0,69.1,30.02,West,268,0.0,3.0,82,0.00,,,0.04,Wunderground v.1.15,2013-03-19 15:59:00,
2013-03-19 12:04:00,75.6,69.0,30.03,NNW,332,3.0,3.0,80,0.00,,,0.04,Wunderground v.1.15,2013-03-19 16:04:00,
2013-03-19 12:09:00,75.5,68.9,30.03,North,350,2.0,7.0,80,0.00,,,0.04,Wunderground v.1.15,2013-03-19 16:09:00,
2013-03-19 12:14:00,75.6,69.4,30.03,NNE,13,3.0,4.0,81,0.00,,,0.04,Wunderground v.1.15,2013-03-19 16:14:00,
2013-03-19 12:19:00,75.6,68.3,30.03,NNE,22,2.0,6.0,78,0.00,,,0.04,Wunderground v.1.15,2013-03-19 16:19:00,
2013-03-19 12:24:00,75.9,68.9,30.03,West,261,3.0,5.0,79,0.00,,,0.04,Wunderground v.1.15,2013-03-19 16:24:00,
2013-03-19 12:29:00,76.3,68.2,30.03,NNW,340,3.0,5.0,76,0.00,,,0.04,Wunderground v.1.15,2013-03-19 16:29:00,
2013-03-19 12:34:00,76.5,68.4,30.04,NNE,19,2.0,6.0,76,0.00,,,0.04,Wunderground v.1.15,2013-03-19 16:34:00,
2013-03-19 12:39:00,77.2,69.4,30.04,WNW,284,0.0,6.0,77,0.00,,,0.04,Wunderground v.1.15,2013-03-19 16:39:00,
2013-03-19 12:44:00,78.0,69.0,30.04,NNE,24,1.0,2.0,74,0.00,,,0.04,Wunderground v.1.15,2013-03-19 16:44:00,
2013-03-19 12:49:00,78.1,67.5,30.04,NW,309,0.0,3.0,70,0.00,,,0.04,Wunderground v.1.15,2013-03-19 16:49:00,
2013-03-19 12:54:00,78.2,68.0,30.04,West,259,2.0,2.0,71,0.00,,,0.04,Wunderground v.1.15,2013-03-19 16:54:00,
2013-03-19 12:59:00,78.5,68.3,30.04,NW,310,2.0,2.0,71,0.00,,,0.04,Wunderground v.1.15,2013-03-19 16:59:00,
2013-03-19 13:04:00,78.3,66.4,30.03,NW,315,0.0,3.0,67,0.00,,,0.04,Wunderground v.1.15,2013-03-19 17:04:00,
2013-03-19 13:09:00,77.9,67.3,30.03,West,264,1.0,6.0,70,0.00,,,0.04,Wunderground v.1.15,2013-03-19 17:09:00,
2013-03-19 13:14:00,78.1,66.7,30.03,NW,309,0.0,3.0,68,0.00,,,0.04,Wunderground v.1.15,2013-03-19 17:14:00,
2013-03-19 13:19:00,78.5,67.1,30.02,WSW,245,2.0,3.0,68,0.00,,,0.04,Wunderground v.1.15,2013-03-19 17:19:00,
2013-03-19 13:24:00,79.0,68.4,30.02,NNE,19,1.0,3.0,70,0.00,,,0.04,Wunderground v.1.15,2013-03-19 17:24:00,
2013-03-19 13:29:00,79.1,66.8,30.02,West,271,2.0,3.0,66,0.00,,,0.04,Wunderground v.1.15,2013-03-19 17:29:00,
2013-03-19 13:34:00,79.6,67.7,30.02,West,264,1.0,1.0,67,0.00,,,0.04,Wunderground v.1.15,2013-03-19 17:34:00,
2013-03-19 13:39:00,79.7,67.8,30.02,WSW,252,3.0,4.0,67,0.00,,,0.04,Wunderground v.1.15,2013-03-19 17:39:00,
2013-03-19 13:44:00,79.5,66.7,30.02,SSE,155,1.0,4.0,65,0.00,,,0.04,Wunderground v.1.15,2013-03-19 17:44:00,
2013-03-19 13:49:00,79.7,66.9,30.01,NNE,27,3.0,4.0,65,0.00,,,0.04,Wunderground v.1.15,2013-03-19 17:49:00,
2013-03-19 13:54:00,79.5,66.7,30.01,NNE,33,1.0,4.0,65,0.00,,,0.04,Wunderground v.1.15,2013-03-19 17:54:00,
2013-03-19 13:59:00,79.6,66.8,30.01,NW,313,2.0,4.0,65,0.00,,,0.04,Wunderground v.1.15,2013-03-19 17:59:00,
2013-03-19 14:04:00,79.3,67.0,30.01,NW,313,2.0,2.0,66,0.00,,,0.04,Wunderground v.1.15,2013-03-19 18:04:00,
2013-03-19 14:09:00,79.1,66.8,30.01,NNW,329,1.0,3.0,66,0.00,,,0.04,Wunderground v.1.15,2013-03-19 18:09:00,
2013-03-19 14:14:00,78.8,67.3,30.01,NW,323,0.0,3.0,68,0.00,,,0.04,Wunderground v.1.15,2013-03-19 18:14:00,
2013-03-19 14:19:00,78.6,67.2,30.00,SSW,207,1.0,3.0,68,0.00,,,0.04,Wunderground v.1.15,2013-03-19 18:19:00,
2013-03-19 14:24:00,78.7,66.8,30.00,NE,35,2.0,4.0,67,0.00,,,0.04,Wunderground v.1.15,2013-03-19 18:24:00,
2013-03-19 14:29:00,78.1,66.2,30.00,NNE,13,4.0,5.0,67,0.00,,,0.04,Wunderground v.1.15,2013-03-19 18:29:00,
2013-03-19 14:34:00,77.8,66.4,29.99,NW,326,0.0,4.0,68,0.00,,,0.04,Wunderground v.1.15,2013-03-19 18:34:00,
2013-03-19 14:40:00,77.8,66.4,29.99,SE,133,0.0,4.0,68,0.00,,,0.04,Wunderground v.1.15,2013-03-19 18:40:00,
2013-03-19 14:45:00,78.2,67.2,29.99,NW,304,1.0,3.0,69,0.00,,,0.04,Wunderground v.1.15,2013-03-19 18:45:00,
2013-03-19 14:51:00,78.9,67.0,29.99,NE,37,1.0,1.0,67,0.00,,,0.04,Wunderground v.1.15,2013-03-19 18:51:00,
2013-03-19 14:56:00,79.1,66.3,29.99,NNE,32,5.0,6.0,65,0.00,,,0.04,Wunderground v.1.15,2013-03-19 18:56:00,
2013-03-19 15:01:00,78.9,66.6,29.98,West,263,2.0,2.0,66,0.00,,,0.04,Wunderground v.1.15,2013-03-19 19:01:00,
2013-03-19 15:07:00,79.2,66.4,29.98,NNE,24,6.0,6.0,65,0.00,,,0.04,Wunderground v.1.15,2013-03-19 19:07:00,
2013-03-19 15:12:00,78.6,65.8,29.98,NNE,13,6.0,7.0,65,0.00,,,0.04,Wunderground v.1.15,2013-03-19 19:12:00,
2013-03-19 15:17:00,78.5,66.2,29.98,NW,314,0.0,7.0,66,0.00,,,0.04,Wunderground v.1.15,2013-03-19 19:17:00,
2013-03-19 15:22:00,78.6,66.3,29.98,NW,318,1.0,2.0,66,0.00,,,0.04,Wunderground v.1.15,2013-03-19 19:22:00,
2013-03-19 15:27:00,78.8,66.5,29.98,West,279,0.0,2.0,66,0.00,,,0.04,Wunderground v.1.15,2013-03-19 19:27:00,
2013-03-19 15:32:00,78.8,66.9,29.97,WNW,302,1.0,2.0,67,0.00,,,0.04,Wunderground v.1.15,2013-03-19 19:32:00,
2013-03-19 15:37:00,78.7,66.4,29.97,NE,40,2.0,3.0,66,0.00,,,0.04,Wunderground v.1.15,2013-03-19 19:37:00,
2013-03-19 15:42:00,78.7,66.8,29.97,WNW,286,0.0,3.0,67,0.00,,,0.04,Wunderground v.1.15,2013-03-19 19:42:00,
2013-03-19 15:47:00,78.6,67.2,29.97,NW,309,1.0,3.0,68,0.00,,,0.04,Wunderground v.1.15,2013-03-19 19:47:00,
2013-03-19 15:53:00,78.3,67.3,29.97,NNW,348,1.0,2.0,69,0.00,,,0.04,Wunderground v.1.15,2013-03-19 19:53:00,
2013-03-19 15:58:00,78.1,66.7,29.97,NNE,15,0.0,5.0,68,0.00,,,0.04,Wunderground v.1.15,2013-03-19 19:58:00,
2013-03-19 16:03:00,78.0,67.0,29.96,NW,306,1.0,2.0,69,0.00,,,0.04,Wunderground v.1.15,2013-03-19 20:03:00,
2013-03-19 16:08:00,78.1,67.5,29.96,North,350,3.0,5.0,70,0.00,,,0.04,Wunderground v.1.15,2013-03-19 20:08:00,
2013-03-19 16:13:00,78.1,67.5,29.96,North,351,1.0,3.0,70,0.00,,,0.04,Wunderground v.1.15,2013-03-19 20:13:00,
2013-03-19 16:18:00,78.3,66.9,29.95,NE,34,2.0,4.0,68,0.00,,,0.04,Wunderground v.1.15,2013-03-19 20:18:00,
2013-03-19 16:23:00,78.8,67.3,29.95,NW,323,0.0,1.0,68,0.00,,,0.04,Wunderground v.1.15,2013-03-19 20:23:00,
2013-03-19 16:28:00,79.2,66.9,29.95,SSE,161,0.0,1.0,66,0.00,,,0.04,Wunderground v.1.15,2013-03-19 20:28:00,
2013-03-19 16:33:00,78.9,66.6,29.95,SSE,150,0.0,1.0,66,0.00,,,0.04,Wunderground v.1.15,2013-03-19 20:33:00,
2013-03-19 16:38:00,78.9,66.6,29.95,ESE,102,0.0,1.0,66,0.00,,,0.04,Wunderground v.1.15,2013-03-19 20:38:00,
2013-03-19 16:43:00,79.0,67.1,29.95,SE,145,0.0,1.0,67,0.00,,,0.04,Wunderground v.1.15,2013-03-19 20:43:00,
2013-03-19 16:48:00,78.7,66.4,29.94,SE,146,1.0,2.0,66,0.00,,,0.04,Wunderground v.1.15,2013-03-19 20:48:00,
2013-03-19 16:53:00,78.2,65.9,29.94,SE,136,0.0,1.0,66,0.00,,,0.04,Wunderground v.1.15,2013-03-19 20:53:00,
2013-03-19 16:58:00,78.3,66.9,29.94,SSE,163,0.0,1.0,68,0.00,,,0.04,Wunderground v.1.15,2013-03-19 20:58:00,
2013-03-19 17:03:00,78.4,67.0,29.94,SE,140,0.0,1.0,68,0.00,,,0.04,Wunderground v.1.15,2013-03-19 21:03:00,
2013-03-19 17:08:00,78.5,67.5,29.94,SE,141,0.0,1.0,69,0.00,,,0.04,Wunderground v.1.15,2013-03-19 21:08:00,
2013-03-19 17:13:00,78.6,66.7,29.94,SSE,168,0.0,0.0,67,0.00,,,0.04,Wunderground v.1.15,2013-03-19 21:13:00,
2013-03-19 17:18:00,78.6,66.3,29.93,ESE,114,0.0,1.0,66,0.00,,,0.04,Wunderground v.1.15,2013-03-19 21:18:00,
2013-03-19 17:23:00,78.4,67.0,29.93,SSE,149,0.0,1.0,68,0.00,,,0.04,Wunderground v.1.15,2013-03-19 21:23:00,
2013-03-19 17:28:00,78.5,66.6,29.93,SSW,195,1.0,3.0,67,0.00,,,0.04,Wunderground v.1.15,2013-03-19 21:28:00,
2013-03-19 17:33:00,78.3,66.4,29.93,SSE,161,0.0,2.0,67,0.00,,,0.04,Wunderground v.1.15,2013-03-19 21:33:00,
2013-03-19 17:38:00,78.0,66.6,29.93,ESE,113,0.0,4.0,68,0.00,,,0.04,Wunderground v.1.15,2013-03-19 21:38:00,
2013-03-19 17:43:00,77.8,66.4,29.93,SSE,160,1.0,3.0,68,0.00,,,0.04,Wunderground v.1.15,2013-03-19 21:43:00,
2013-03-19 17:48:00,77.9,66.5,29.92,SSE,159,1.0,3.0,68,0.00,,,0.04,Wunderground v.1.15,2013-03-19 21:48:00,
2013-03-19 17:53:00,78.1,66.7,29.92,SSE,150,1.0,2.0,68,0.00,,,0.04,Wunderground v.1.15,2013-03-19 21:53:00,
2013-03-19 17:58:00,78.5,66.6,29.92,SE,129,2.0,2.0,67,0.00,,,0.04,Wunderground v.1.15,2013-03-19 21:58:00,
2013-03-19 18:03:00,78.8,66.5,29.92,SE,143,1.0,2.0,66,0.00,,,0.04,Wunderground v.1.15,2013-03-19 22:03:00,
2013-03-19 18:08:00,79.0,66.2,29.92,SE,140,1.0,2.0,65,0.00,,,0.04,Wunderground v.1.15,2013-03-19 22:08:00,
2013-03-19 18:13:00,79.4,67.0,29.92,SE,140,0.0,1.0,66,0.00,,,0.04,Wunderground v.1.15,2013-03-19 22:13:00,
2013-03-19 18:18:00,79.7,66.9,29.92,SE,134,0.0,2.0,65,0.00,,,0.04,Wunderground v.1.15,2013-03-19 22:18:00,
2013-03-19 18:24:00,79.5,66.7,29.92,South,188,2.0,7.0,65,0.00,,,0.04,Wunderground v.1.15,2013-03-19 22:24:00,
2013-03-19 18:29:00,79.6,66.3,29.92,SSE,149,0.0,7.0,64,0.00,,,0.04,Wunderground v.1.15,2013-03-19 22:29:00,
2013-03-19 18:34:00,79.4,68.3,29.93,SE,145,0.0,2.0,69,0.00,,,0.04,Wunderground v.1.15,2013-03-19 22:34:00,
2013-03-19 18:39:00,79.1,68.9,29.93,NNE,25,0.0,2.0,71,0.00,,,0.04,Wunderground v.1.15,2013-03-19 22:39:00,
2013-03-19 18:44:00,78.8,69.4,29.93,SE,133,0.0,1.0,73,0.00,,,0.04,Wunderground v.1.15,2013-03-19 22:44:00,
2013-03-19 18:49:00,78.5,69.1,29.93,SE,142,0.0,2.0,73,0.00,,,0.04,Wunderground v.1.15,2013-03-19 22:49:00,
2013-03-19 18:54:00,77.9,68.9,29.93,SSE,159,0.0,1.0,74,0.00,,,0.04,Wunderground v.1.15,2013-03-19 22:54:00,
2013-03-19 18:59:00,77.7,68.7,29.93,SSE,155,0.0,1.0,74,0.00,,,0.04,Wunderground v.1.15,2013-03-19 22:59:00,
2013-03-19 19:04:00,77.5,69.3,29.94,NNE,17,0.0,1.0,76,0.00,,,0.04,Wunderground v.1.15,2013-03-19 23:04:00,
2013-03-19 19:09:00,77.2,69.0,29.94,SE,134,0.0,3.0,76,0.00,,,0.04,Wunderground v.1.15,2013-03-19 23:09:00,
2013-03-19 19:14:00,76.7,69.3,29.94,SE,146,2.0,2.0,78,0.00,,,0.04,Wunderground v.1.15,2013-03-19 23:14:00,
2013-03-19 19:19:00,76.2,68.8,29.94,NNW,346,1.0,2.0,78,0.00,,,0.04,Wunderground v.1.15,2013-03-19 23:19:00,
2013-03-19 19:24:00,75.8,68.8,29.94,NNW,346,0.0,1.0,79,0.00,,,0.04,Wunderground v.1.15,2013-03-19 23:24:00,
2013-03-19 19:29:00,75.4,68.8,29.94,SE,144,0.0,1.0,80,0.00,,,0.04,Wunderground v.1.15,2013-03-19 23:29:00,
2013-03-19 19:34:00,75.0,68.4,29.95,SE,146,0.0,0.0,80,0.00,,,0.04,Wunderground v.1.15,2013-03-19 23:34:00,
2013-03-19 19:39:00,74.6,68.4,29.95,SSE,149,0.0,0.0,81,0.00,,,0.04,Wunderground v.1.15,2013-03-19 23:39:00,
2013-03-19 19:44:00,74.1,68.3,29.95,SSE,149,0.0,0.0,82,0.00,,,0.04,Wunderground v.1.15,2013-03-19 23:44:00,
2013-03-19 19:49:00,73.6,67.8,29.96,SSE,149,0.0,0.0,82,0.00,,,0.04,Wunderground v.1.15,2013-03-19 23:49:00,
2013-03-19 19:54:00,73.4,68.3,29.96,SSE,149,0.0,1.0,84,0.00,,,0.04,Wunderground v.1.15,2013-03-19 23:54:00,
2013-03-19 19:59:00,73.2,68.4,29.96,SSE,148,0.0,1.0,85,0.00,,,0.04,Wunderground v.1.15,2013-03-19 23:59:00,
2013-03-19 20:04:00,72.8,68.0,29.96,SSE,148,0.0,0.0,85,0.00,,,0.04,Wunderground v.1.15,2013-03-20 00:04:00,
2013-03-19 20:09:00,72.4,67.6,29.96,SSE,149,0.0,0.0,85,0.00,,,0.04,Wunderground v.1.15,2013-03-20 00:09:00,
2013-03-19 20:14:00,72.2,67.8,29.96,SE,132,0.0,1.0,86,0.00,,,0.04,Wunderground v.1.15,2013-03-20 00:14:00,
2013-03-19 20:19:00,72.1,68.0,29.96,SE,133,0.0,1.0,87,0.00,,,0.04,Wunderground v.1.15,2013-03-20 00:19:00,
2013-03-19 20:24:00,71.9,67.8,29.96,SE,133,0.0,0.0,87,0.00,,,0.04,Wunderground v.1.15,2013-03-20 00:24:00,
2013-03-19 20:29:00,71.4,67.3,29.96,SE,133,0.0,0.0,87,0.00,,,0.04,Wunderground v.1.15,2013-03-20 00:29:00,
2013-03-19 20:34:00,71.1,67.4,29.97,SE,134,0.0,0.0,88,0.00,,,0.04,Wunderground v.1.15,2013-03-20 00:34:00,
2013-03-19 20:39:00,71.1,67.7,29.97,SE,133,0.0,0.0,89,0.00,,,0.04,Wunderground v.1.15,2013-03-20 00:39:00,
2013-03-19 20:44:00,70.9,67.2,29.97,SE,133,0.0,0.0,88,0.00,,,0.04,Wunderground v.1.15,2013-03-20 00:44:00,
2013-03-19 20:49:00,70.6,66.9,29.97,SE,133,0.0,0.0,88,0.00,,,0.04,Wunderground v.1.15,2013-03-20 00:49:00,
2013-03-19 20:54:00,70.3,66.9,29.97,SE,133,0.0,0.0,89,0.00,,,0.04,Wunderground v.1.15,2013-03-20 00:54:00,
2013-03-19 20:59:00,70.4,67.3,29.97,SE,132,0.0,2.0,90,0.00,,,0.04,Wunderground v.1.15,2013-03-20 00:59:00,
2013-03-19 21:04:00,70.6,67.8,29.98,SE,132,0.0,0.0,91,0.00,,,0.04,Wunderground v.1.15,2013-03-20 01:04:00,
2013-03-19 21:09:00,70.6,67.5,29.98,SE,134,0.0,0.0,90,0.00,,,0.04,Wunderground v.1.15,2013-03-20 01:09:00,
2013-03-19 21:14:00,70.5,67.7,29.98,SE,135,0.0,0.0,91,0.00,,,0.04,Wunderground v.1.15,2013-03-20 01:14:00,
2013-03-19 21:19:00,70.5,67.7,29.98,SE,135,0.0,0.0,91,0.00,,,0.04,Wunderground v.1.15,2013-03-20 01:19:00,
2013-03-19 21:24:00,70.4,67.3,29.98,SE,134,0.0,0.0,90,0.00,,,0.04,Wunderground v.1.15,2013-03-20 01:24:00,
2013-03-19 21:29:00,70.3,67.5,29.98,SE,136,0.0,1.0,91,0.00,,,0.04,Wunderground v.1.15,2013-03-20 01:29:00,
2013-03-19 21:34:00,70.4,67.6,29.98,SE,136,0.0,0.0,91,0.00,,,0.04,Wunderground v.1.15,2013-03-20 01:34:00,
2013-03-19 21:39:00,70.3,67.5,29.98,SE,136,0.0,0.0,91,0.00,,,0.04,Wunderground v.1.15,2013-03-20 01:39:00,
2013-03-19 21:45:00,70.0,67.3,29.98,SE,136,0.0,0.0,91,0.00,,,0.04,Wunderground v.1.15,2013-03-20 01:45:00,
2013-03-19 21:50:00,69.6,66.9,29.98,SE,136,0.0,0.0,91,0.00,,,0.04,Wunderground v.1.15,2013-03-20 01:50:00,
2013-03-19 21:55:00,69.3,66.6,29.98,SE,136,0.0,0.0,91,0.00,,,0.04,Wunderground v.1.15,2013-03-20 01:55:00,
2013-03-19 22:00:00,69.0,66.3,29.98,SE,136,0.0,0.0,91,0.00,,,0.04,Wunderground v.1.15,2013-03-20 02:00:00,
2013-03-19 22:05:00,68.8,66.1,29.98,SE,136,0.0,0.0,91,0.00,,,0.04,Wunderground v.1.15,2013-03-20 02:05:00,
2013-03-19 22:10:00,68.9,66.5,29.98,SE,136,0.0,0.0,92,0.00,,,0.04,Wunderground v.1.15,2013-03-20 02:10:00,
2013-03-19 22:15:00,68.9,66.8,29.98,SE,136,0.0,0.0,93,0.00,,,0.04,Wunderground v.1.15,2013-03-20 02:15:00,
2013-03-19 22:20:00,69.1,67.0,29.99,SE,136,0.0,0.0,93,0.00,,,0.04,Wunderground v.1.15,2013-03-20 02:20:00,
2013-03-19 22:25:00,69.2,67.1,29.99,SE,136,0.0,0.0,93,0.00,,,0.04,Wunderground v.1.15,2013-03-20 02:25:00,
2013-03-19 22:30:00,68.9,66.5,29.99,SE,136,0.0,0.0,92,0.00,,,0.04,Wunderground v.1.15,2013-03-20 02:30:00,
2013-03-19 22:35:00,68.7,66.6,29.99,SE,136,0.0,0.0,93,0.00,,,0.04,Wunderground v.1.15,2013-03-20 02:35:00,
2013-03-19 22:40:00,69.0,66.9,29.99,SE,136,0.0,0.0,93,0.00,,,0.04,Wunderground v.1.15,2013-03-20 02:40:00,
2013-03-19 22:45:00,68.8,66.7,29.99,SE,136,0.0,0.0,93,0.00,,,0.04,Wunderground v.1.15,2013-03-20 02:45:00,
2013-03-19 22:50:00,68.5,66.4,29.99,SE,136,0.0,0.0,93,0.00,,,0.04,Wunderground v.1.15,2013-03-20 02:50:00,
2013-03-19 22:55:00,68.3,66.2,29.99,SE,136,0.0,0.0,93,0.00,,,0.04,Wunderground v.1.15,2013-03-20 02:55:00,
2013-03-19 23:00:00,68.1,66.0,29.99,SE,136,0.0,0.0,93,0.00,,,0.04,Wunderground v.1.15,2013-03-20 03:00:00,
2013-03-19 23:05:00,67.9,65.8,29.99,SE,136,0.0,0.0,93,0.00,,,0.04,Wunderground v.1.15,2013-03-20 03:05:00,
2013-03-19 23:10:00,68.0,66.2,29.99,SE,136,0.0,0.0,94,0.00,,,0.04,Wunderground v.1.15,2013-03-20 03:10:00,
2013-03-19 23:15:00,67.9,65.8,29.99,SE,136,0.0,0.0,93,0.00,,,0.04,Wunderground v.1.15,2013-03-20 03:15:00,
2013-03-19 23:20:00,67.8,65.7,29.99,SE,136,0.0,0.0,93,0.00,,,0.04,Wunderground v.1.15,2013-03-20 03:20:00,
2013-03-19 23:25:00,67.7,65.9,29.99,SE,136,0.0,0.0,94,0.00,,,0.04,Wunderground v.1.15,2013-03-20 03:25:00,
2013-03-19 23:30:00,67.9,66.4,29.99,SE,136,0.0,0.0,95,0.00,,,0.04,Wunderground v.1.15,2013-03-20 03:30:00,
2013-03-19 23:35:00,68.0,66.2,29.99,SE,136,0.0,0.0,94,0.00,,,0.04,Wunderground v.1.15,2013-03-20 03:35:00,
2013-03-19 23:40:00,68.2,66.7,29.99,SE,136,0.0,0.0,95,0.00,,,0.04,Wunderground v.1.15,2013-03-20 03:40:00,
2013-03-19 23:45:00,68.3,66.8,29.99,SE,136,0.0,0.0,95,0.00,,,0.04,Wunderground v.1.15,2013-03-20 03:45:00,
2013-03-19 23:50:00,68.2,66.4,29.98,SE,136,0.0,0.0,94,0.00,,,0.04,Wunderground v.1.15,2013-03-20 03:50:00,
2013-03-19 23:55:00,68.2,66.4,29.98,SE,136,0.0,0.0,94,0.00,,,0.04,Wunderground v.1.15,2013-03-20 03:55:00,